sensor_id;sensor_type;location;lat;lon;timestamp;P1;durP1;ratioP1;P2;durP2;ratioP2
78197;SDS011;67472;51.554;7.812;2024-02-14T00:02:03;3.28;;;2.47;;
78197;SDS011;67472;51.554;7.812;2024-02-14T00:04:51;3.97;;;2.45;;
78197;SDS011;67472;51.554;7.812;2024-02-14T00:07:38;3.30;;;2.35;;
78197;SDS011;67472;51.554;7.812;2024-02-14T00:10:24;5.25;;;2.30;;
78197;SDS011;67472;51.554;7.812;2024-02-14T00:13:11;3.60;;;2.35;;
78197;SDS011;67472;51.554;7.812;2024-02-14T00:15:57;4.45;;;2.47;;
78197;SDS011;67472;51.554;7.812;2024-02-14T00:18:44;3.28;;;2.53;;
78197;SDS011;67472;51.554;7.812;2024-02-14T00:21:31;6.85;;;2.08;;
78197;SDS011;67472;51.554;7.812;2024-02-14T00:24:18;6.43;;;2.65;;
78197;SDS011;67472;51.554;7.812;2024-02-14T00:27:04;5.88;;;2.78;;
78197;SDS011;67472;51.554;7.812;2024-02-14T00:29:51;3.80;;;2.67;;
78197;SDS011;67472;51.554;7.812;2024-02-14T00:32:38;5.28;;;2.70;;
78197;SDS011;67472;51.554;7.812;2024-02-14T00:35:26;3.75;;;2.50;;
78197;SDS011;67472;51.554;7.812;2024-02-14T00:38:14;2.65;;;2.45;;
78197;SDS011;67472;51.554;7.812;2024-02-14T00:41:01;6.18;;;2.30;;
78197;SDS011;67472;51.554;7.812;2024-02-14T00:43:48;4.72;;;2.83;;
78197;SDS011;67472;51.554;7.812;2024-02-14T00:46:35;2.40;;;2.20;;
78197;SDS011;67472;51.554;7.812;2024-02-14T00:49:21;4.78;;;2.85;;
78197;SDS011;67472;51.554;7.812;2024-02-14T00:52:07;4.97;;;2.17;;
78197;SDS011;67472;51.554;7.812;2024-02-14T00:54:56;6.05;;;2.88;;
78197;SDS011;67472;51.554;7.812;2024-02-14T00:57:43;5.55;;;2.67;;
78197;SDS011;67472;51.554;7.812;2024-02-14T01:00:29;7.13;;;2.50;;
78197;SDS011;67472;51.554;7.812;2024-02-14T01:03:16;9.13;;;2.95;;
78197;SDS011;67472;51.554;7.812;2024-02-14T01:06:02;9.43;;;2.85;;
78197;SDS011;67472;51.554;7.812;2024-02-14T01:08:49;3.05;;;2.53;;
78197;SDS011;67472;51.554;7.812;2024-02-14T01:11:37;7.20;;;2.55;;
78197;SDS011;67472;51.554;7.812;2024-02-14T01:14:24;5.55;;;1.80;;
78197;SDS011;67472;51.554;7.812;2024-02-14T01:17:10;8.75;;;2.58;;
78197;SDS011;67472;51.554;7.812;2024-02-14T01:19:57;4.28;;;2.25;;
78197;SDS011;67472;51.554;7.812;2024-02-14T01:22:44;6.57;;;2.40;;
78197;SDS011;67472;51.554;7.812;2024-02-14T01:25:37;5.00;;;2.60;;
78197;SDS011;67472;51.554;7.812;2024-02-14T01:28:25;3.67;;;2.30;;
78197;SDS011;67472;51.554;7.812;2024-02-14T01:31:11;4.57;;;1.90;;
78197;SDS011;67472;51.554;7.812;2024-02-14T01:33:58;3.67;;;2.40;;
78197;SDS011;67472;51.554;7.812;2024-02-14T01:36:47;3.40;;;2.30;;
78197;SDS011;67472;51.554;7.812;2024-02-14T01:39:34;4.88;;;1.88;;
78197;SDS011;67472;51.554;7.812;2024-02-14T01:42:21;2.03;;;1.80;;
78197;SDS011;67472;51.554;7.812;2024-02-14T01:45:09;3.28;;;1.70;;
78197;SDS011;67472;51.554;7.812;2024-02-14T01:48:06;3.97;;;1.85;;
78197;SDS011;67472;51.554;7.812;2024-02-14T01:50:57;3.28;;;2.00;;
78197;SDS011;67472;51.554;7.812;2024-02-14T01:53:45;3.55;;;1.77;;
78197;SDS011;67472;51.554;7.812;2024-02-14T01:56:31;1.80;;;1.70;;
78197;SDS011;67472;51.554;7.812;2024-02-14T01:59:17;7.50;;;2.47;;
78197;SDS011;67472;51.554;7.812;2024-02-14T02:02:05;3.55;;;1.67;;
78197;SDS011;67472;51.554;7.812;2024-02-14T02:04:53;2.55;;;1.60;;
78197;SDS011;67472;51.554;7.812;2024-02-14T02:07:40;3.80;;;1.95;;
78197;SDS011;67472;51.554;7.812;2024-02-14T02:10:27;3.60;;;1.67;;
78197;SDS011;67472;51.554;7.812;2024-02-14T02:13:33;2.17;;;1.63;;
78197;SDS011;67472;51.554;7.812;2024-02-14T02:16:42;5.60;;;1.95;;
78197;SDS011;67472;51.554;7.812;2024-02-14T02:19:52;2.67;;;1.60;;
78197;SDS011;67472;51.554;7.812;2024-02-14T02:22:55;3.08;;;1.67;;
78197;SDS011;67472;51.554;7.812;2024-02-14T02:26:01;2.35;;;1.90;;
78197;SDS011;67472;51.554;7.812;2024-02-14T02:29:07;2.47;;;1.40;;
78197;SDS011;67472;51.554;7.812;2024-02-14T02:31:53;1.83;;;1.58;;
78197;SDS011;67472;51.554;7.812;2024-02-14T02:34:40;3.85;;;1.80;;
78197;SDS011;67472;51.554;7.812;2024-02-14T02:37:27;2.53;;;1.73;;
78197;SDS011;67472;51.554;7.812;2024-02-14T02:40:31;2.95;;;1.80;;
78197;SDS011;67472;51.554;7.812;2024-02-14T02:43:37;6.10;;;1.55;;
78197;SDS011;67472;51.554;7.812;2024-02-14T02:46:43;1.70;;;1.58;;
78197;SDS011;67472;51.554;7.812;2024-02-14T02:49:50;5.38;;;1.73;;
78197;SDS011;67472;51.554;7.812;2024-02-14T02:52:57;3.17;;;2.00;;
78197;SDS011;67472;51.554;7.812;2024-02-14T02:56:06;3.65;;;1.77;;
78197;SDS011;67472;51.554;7.812;2024-02-14T02:58:54;3.25;;;1.92;;
78197;SDS011;67472;51.554;7.812;2024-02-14T03:01:40;4.35;;;1.92;;
78197;SDS011;67472;51.554;7.812;2024-02-14T03:04:47;2.55;;;1.55;;
78197;SDS011;67472;51.554;7.812;2024-02-14T03:07:53;2.17;;;1.35;;
78197;SDS011;67472;51.554;7.812;2024-02-14T03:11:08;4.55;;;1.60;;
78197;SDS011;67472;51.554;7.812;2024-02-14T03:14:16;5.00;;;1.95;;
78197;SDS011;67472;51.554;7.812;2024-02-14T03:17:23;2.05;;;1.50;;
78197;SDS011;67472;51.554;7.812;2024-02-14T03:20:10;3.05;;;1.65;;
78197;SDS011;67472;51.554;7.812;2024-02-14T03:22:58;3.70;;;2.05;;
78197;SDS011;67472;51.554;7.812;2024-02-14T03:25:45;2.35;;;1.83;;
78197;SDS011;67472;51.554;7.812;2024-02-14T03:28:34;2.17;;;1.80;;
78197;SDS011;67472;51.554;7.812;2024-02-14T03:31:21;2.88;;;2.10;;
78197;SDS011;67472;51.554;7.812;2024-02-14T03:34:07;3.65;;;2.03;;
78197;SDS011;67472;51.554;7.812;2024-02-14T03:36:55;4.10;;;2.25;;
78197;SDS011;67472;51.554;7.812;2024-02-14T03:39:42;2.50;;;2.08;;
78197;SDS011;67472;51.554;7.812;2024-02-14T03:42:30;2.65;;;1.98;;
78197;SDS011;67472;51.554;7.812;2024-02-14T03:45:18;1.83;;;1.70;;
78197;SDS011;67472;51.554;7.812;2024-02-14T03:48:06;2.47;;;2.10;;
78197;SDS011;67472;51.554;7.812;2024-02-14T03:50:54;3.03;;;2.17;;
78197;SDS011;67472;51.554;7.812;2024-02-14T03:53:41;4.53;;;2.00;;
78197;SDS011;67472;51.554;7.812;2024-02-14T03:56:28;4.53;;;1.90;;
78197;SDS011;67472;51.554;7.812;2024-02-14T03:59:15;3.20;;;1.90;;
78197;SDS011;67472;51.554;7.812;2024-02-14T04:02:10;1.63;;;1.52;;
78197;SDS011;67472;51.554;7.812;2024-02-14T04:04:58;2.00;;;1.80;;
78197;SDS011;67472;51.554;7.812;2024-02-14T04:07:45;2.53;;;2.20;;
78197;SDS011;67472;51.554;7.812;2024-02-14T04:10:35;2.97;;;1.75;;
78197;SDS011;67472;51.554;7.812;2024-02-14T04:13:23;3.67;;;1.77;;
78197;SDS011;67472;51.554;7.812;2024-02-14T04:16:09;2.20;;;1.90;;
78197;SDS011;67472;51.554;7.812;2024-02-14T04:19:09;2.55;;;1.58;;
78197;SDS011;67472;51.554;7.812;2024-02-14T04:21:58;3.45;;;2.10;;
78197;SDS011;67472;51.554;7.812;2024-02-14T04:24:44;2.38;;;1.80;;
78197;SDS011;67472;51.554;7.812;2024-02-14T04:27:31;3.13;;;1.80;;
78197;SDS011;67472;51.554;7.812;2024-02-14T04:30:20;2.10;;;1.85;;
78197;SDS011;67472;51.554;7.812;2024-02-14T04:33:22;2.20;;;1.83;;
78197;SDS011;67472;51.554;7.812;2024-02-14T04:36:10;2.88;;;1.85;;
78197;SDS011;67472;51.554;7.812;2024-02-14T04:38:57;1.60;;;1.50;;
78197;SDS011;67472;51.554;7.812;2024-02-14T04:41:43;1.92;;;1.70;;
78197;SDS011;67472;51.554;7.812;2024-02-14T04:44:30;2.72;;;1.60;;
78197;SDS011;67472;51.554;7.812;2024-02-14T04:47:17;3.85;;;1.75;;
78197;SDS011;67472;51.554;7.812;2024-02-14T04:50:05;2.55;;;1.90;;
78197;SDS011;67472;51.554;7.812;2024-02-14T04:52:54;5.95;;;1.80;;
78197;SDS011;67472;51.554;7.812;2024-02-14T04:55:41;2.00;;;1.58;;
78197;SDS011;67472;51.554;7.812;2024-02-14T04:58:28;2.55;;;1.55;;
78197;SDS011;67472;51.554;7.812;2024-02-14T05:01:15;2.83;;;1.48;;
78197;SDS011;67472;51.554;7.812;2024-02-14T05:04:03;1.80;;;1.70;;
78197;SDS011;67472;51.554;7.812;2024-02-14T05:06:49;4.03;;;2.20;;
78197;SDS011;67472;51.554;7.812;2024-02-14T05:09:39;2.47;;;2.05;;
78197;SDS011;67472;51.554;7.812;2024-02-14T05:12:26;4.28;;;1.92;;
78197;SDS011;67472;51.554;7.812;2024-02-14T05:15:12;4.28;;;2.30;;
78197;SDS011;67472;51.554;7.812;2024-02-14T05:17:59;3.72;;;2.30;;
78197;SDS011;67472;51.554;7.812;2024-02-14T05:20:46;5.00;;;2.20;;
78197;SDS011;67472;51.554;7.812;2024-02-14T05:23:32;3.10;;;2.80;;
78197;SDS011;67472;51.554;7.812;2024-02-14T05:26:22;4.03;;;2.75;;
78197;SDS011;67472;51.554;7.812;2024-02-14T05:29:08;6.30;;;2.90;;
78197;SDS011;67472;51.554;7.812;2024-02-14T05:31:54;3.10;;;2.70;;
78197;SDS011;67472;51.554;7.812;2024-02-14T05:34:41;4.65;;;3.65;;
78197;SDS011;67472;51.554;7.812;2024-02-14T05:37:29;3.78;;;3.42;;
78197;SDS011;67472;51.554;7.812;2024-02-14T05:40:16;5.00;;;3.95;;
78197;SDS011;67472;51.554;7.812;2024-02-14T05:43:04;5.72;;;3.67;;
78197;SDS011;67472;51.554;7.812;2024-02-14T05:45:51;5.93;;;3.10;;
78197;SDS011;67472;51.554;7.812;2024-02-14T05:48:42;4.20;;;3.28;;
78197;SDS011;67472;51.554;7.812;2024-02-14T05:51:29;5.30;;;3.72;;
78197;SDS011;67472;51.554;7.812;2024-02-14T05:54:16;4.40;;;3.67;;
78197;SDS011;67472;51.554;7.812;2024-02-14T05:57:03;3.72;;;3.40;;
78197;SDS011;67472;51.554;7.812;2024-02-14T05:59:52;3.20;;;3.00;;
78197;SDS011;67472;51.554;7.812;2024-02-14T06:02:38;4.43;;;3.80;;
78197;SDS011;67472;51.554;7.812;2024-02-14T06:05:28;4.95;;;3.38;;
78197;SDS011;67472;51.554;7.812;2024-02-14T06:08:14;4.53;;;3.47;;
78197;SDS011;67472;51.554;7.812;2024-02-14T06:11:01;3.70;;;3.40;;
78197;SDS011;67472;51.554;7.812;2024-02-14T06:13:47;3.30;;;3.00;;
78197;SDS011;67472;51.554;7.812;2024-02-14T06:16:35;5.78;;;3.33;;
78197;SDS011;67472;51.554;7.812;2024-02-14T06:19:22;3.63;;;3.22;;
78197;SDS011;67472;51.554;7.812;2024-02-14T06:22:10;4.18;;;3.45;;
78197;SDS011;67472;51.554;7.812;2024-02-14T06:25:00;5.03;;;3.72;;
78197;SDS011;67472;51.554;7.812;2024-02-14T06:27:52;4.53;;;3.75;;
78197;SDS011;67472;51.554;7.812;2024-02-14T06:30:39;6.68;;;4.10;;
78197;SDS011;67472;51.554;7.812;2024-02-14T06:33:28;3.97;;;3.58;;
78197;SDS011;67472;51.554;7.812;2024-02-14T06:36:17;4.70;;;4.28;;
78197;SDS011;67472;51.554;7.812;2024-02-14T06:39:12;4.35;;;3.60;;
78197;SDS011;67472;51.554;7.812;2024-02-14T06:41:58;4.40;;;4.00;;
78197;SDS011;67472;51.554;7.812;2024-02-14T06:44:44;5.55;;;4.22;;
78197;SDS011;67472;51.554;7.812;2024-02-14T06:47:31;7.43;;;3.72;;
78197;SDS011;67472;51.554;7.812;2024-02-14T06:50:32;4.63;;;4.22;;
78197;SDS011;67472;51.554;7.812;2024-02-14T06:53:22;5.30;;;3.72;;
78197;SDS011;67472;51.554;7.812;2024-02-14T06:56:19;4.72;;;4.05;;
78197;SDS011;67472;51.554;7.812;2024-02-14T06:59:07;3.50;;;3.20;;
78197;SDS011;67472;51.554;7.812;2024-02-14T07:02:07;4.65;;;2.70;;
78197;SDS011;67472;51.554;7.812;2024-02-14T07:04:57;3.75;;;3.00;;
78197;SDS011;67472;51.554;7.812;2024-02-14T07:07:51;3.42;;;3.13;;
78197;SDS011;67472;51.554;7.812;2024-02-14T07:10:45;3.97;;;2.90;;
78197;SDS011;67472;51.554;7.812;2024-02-14T07:13:32;4.03;;;2.55;;
78197;SDS011;67472;51.554;7.812;2024-02-14T07:16:20;3.20;;;2.53;;
78197;SDS011;67472;51.554;7.812;2024-02-14T07:19:17;3.50;;;2.50;;
78197;SDS011;67472;51.554;7.812;2024-02-14T07:22:04;4.63;;;2.60;;
78197;SDS011;67472;51.554;7.812;2024-02-14T07:24:55;5.28;;;2.70;;
78197;SDS011;67472;51.554;7.812;2024-02-14T07:27:42;5.30;;;2.90;;
78197;SDS011;67472;51.554;7.812;2024-02-14T07:30:30;2.90;;;2.70;;
78197;SDS011;67472;51.554;7.812;2024-02-14T07:33:19;3.60;;;3.30;;
78197;SDS011;67472;51.554;7.812;2024-02-14T07:36:06;3.80;;;3.38;;
78197;SDS011;67472;51.554;7.812;2024-02-14T07:38:56;4.13;;;3.72;;
78197;SDS011;67472;51.554;7.812;2024-02-14T07:41:44;4.68;;;4.20;;
78197;SDS011;67472;51.554;7.812;2024-02-14T07:44:33;4.28;;;3.88;;
78197;SDS011;67472;51.554;7.812;2024-02-14T07:47:21;4.88;;;4.18;;
78197;SDS011;67472;51.554;7.812;2024-02-14T07:50:11;6.45;;;4.15;;
78197;SDS011;67472;51.554;7.812;2024-02-14T07:52:59;5.57;;;3.50;;
78197;SDS011;67472;51.554;7.812;2024-02-14T07:55:48;4.07;;;3.70;;
78197;SDS011;67472;51.554;7.812;2024-02-14T07:58:38;4.07;;;3.70;;
78197;SDS011;67472;51.554;7.812;2024-02-14T08:01:25;5.38;;;3.58;;
78197;SDS011;67472;51.554;7.812;2024-02-14T08:04:13;4.75;;;3.90;;
78197;SDS011;67472;51.554;7.812;2024-02-14T08:07:00;4.85;;;4.15;;
78197;SDS011;67472;51.554;7.812;2024-02-14T08:09:49;5.13;;;4.63;;
78197;SDS011;67472;51.554;7.812;2024-02-14T08:12:36;4.72;;;3.90;;
78197;SDS011;67472;51.554;7.812;2024-02-14T08:15:24;4.63;;;4.00;;
78197;SDS011;67472;51.554;7.812;2024-02-14T08:18:11;7.28;;;4.22;;
78197;SDS011;67472;51.554;7.812;2024-02-14T08:20:58;4.95;;;4.30;;
78197;SDS011;67472;51.554;7.812;2024-02-14T08:23:44;6.22;;;3.83;;
78197;SDS011;67472;51.554;7.812;2024-02-14T08:26:31;3.83;;;3.42;;
78197;SDS011;67472;51.554;7.812;2024-02-14T08:29:17;4.88;;;3.63;;
78197;SDS011;67472;51.554;7.812;2024-02-14T08:32:05;3.85;;;3.50;;
78197;SDS011;67472;51.554;7.812;2024-02-14T08:34:52;3.13;;;2.85;;
78197;SDS011;67472;51.554;7.812;2024-02-14T08:37:38;3.47;;;3.17;;
78197;SDS011;67472;51.554;7.812;2024-02-14T08:40:25;3.30;;;3.00;;
78197;SDS011;67472;51.554;7.812;2024-02-14T08:43:11;3.35;;;3.03;;
78197;SDS011;67472;51.554;7.812;2024-02-14T08:45:58;4.15;;;3.75;;
78197;SDS011;67472;51.554;7.812;2024-02-14T08:48:46;4.07;;;3.70;;
78197;SDS011;67472;51.554;7.812;2024-02-14T08:51:34;3.50;;;3.22;;
78197;SDS011;67472;51.554;7.812;2024-02-14T08:54:21;3.55;;;3.17;;
78197;SDS011;67472;51.554;7.812;2024-02-14T08:57:08;3.47;;;3.10;;
78197;SDS011;67472;51.554;7.812;2024-02-14T08:59:54;2.95;;;2.75;;
78197;SDS011;67472;51.554;7.812;2024-02-14T09:02:41;2.80;;;2.60;;
78197;SDS011;67472;51.554;7.812;2024-02-14T09:05:29;2.75;;;2.40;;
78197;SDS011;67472;51.554;7.812;2024-02-14T09:08:15;3.08;;;2.45;;
78197;SDS011;67472;51.554;7.812;2024-02-14T09:11:05;2.50;;;2.30;;
78197;SDS011;67472;51.554;7.812;2024-02-14T09:13:51;4.38;;;2.53;;
78197;SDS011;67472;51.554;7.812;2024-02-14T09:16:40;4.57;;;2.17;;
78197;SDS011;67472;51.554;7.812;2024-02-14T09:19:26;2.55;;;2.20;;
78197;SDS011;67472;51.554;7.812;2024-02-14T09:22:14;2.38;;;2.17;;
78197;SDS011;67472;51.554;7.812;2024-02-14T09:25:06;2.60;;;2.40;;
78197;SDS011;67472;51.554;7.812;2024-02-14T09:27:54;2.38;;;2.03;;
78197;SDS011;67472;51.554;7.812;2024-02-14T09:30:40;3.35;;;1.77;;
78197;SDS011;67472;51.554;7.812;2024-02-14T09:33:26;2.22;;;1.90;;
78197;SDS011;67472;51.554;7.812;2024-02-14T09:36:13;3.72;;;2.50;;
78197;SDS011;67472;51.554;7.812;2024-02-14T09:39:01;4.07;;;2.05;;
78197;SDS011;67472;51.554;7.812;2024-02-14T09:41:52;2.30;;;2.10;;
78197;SDS011;67472;51.554;7.812;2024-02-14T09:44:41;3.05;;;2.78;;
78197;SDS011;67472;51.554;7.812;2024-02-14T09:47:31;3.80;;;2.17;;
78197;SDS011;67472;51.554;7.812;2024-02-14T09:50:19;2.72;;;2.50;;
78197;SDS011;67472;51.554;7.812;2024-02-14T09:53:06;3.00;;;2.80;;
78197;SDS011;67472;51.554;7.812;2024-02-14T09:55:55;3.92;;;2.88;;
78197;SDS011;67472;51.554;7.812;2024-02-14T09:58:43;2.60;;;2.40;;
78197;SDS011;67472;51.554;7.812;2024-02-14T10:01:30;2.90;;;2.70;;
78197;SDS011;67472;51.554;7.812;2024-02-14T10:04:16;3.63;;;2.72;;
78197;SDS011;67472;51.554;7.812;2024-02-14T10:07:03;3.67;;;2.53;;
78197;SDS011;67472;51.554;7.812;2024-02-14T10:09:53;3.20;;;2.35;;
78197;SDS011;67472;51.554;7.812;2024-02-14T10:12:41;2.60;;;2.40;;
78197;SDS011;67472;51.554;7.812;2024-02-14T10:15:28;2.60;;;2.40;;
78197;SDS011;67472;51.554;7.812;2024-02-14T10:18:15;1.90;;;1.80;;
78197;SDS011;67472;51.554;7.812;2024-02-14T10:21:02;3.47;;;1.70;;
78197;SDS011;67472;51.554;7.812;2024-02-14T10:23:50;2.53;;;1.80;;
78197;SDS011;67472;51.554;7.812;2024-02-14T10:26:37;2.28;;;2.10;;
78197;SDS011;67472;51.554;7.812;2024-02-14T10:29:25;1.70;;;1.60;;
78197;SDS011;67472;51.554;7.812;2024-02-14T10:32:14;3.20;;;1.58;;
78197;SDS011;67472;51.554;7.812;2024-02-14T10:35:01;2.15;;;1.65;;
78197;SDS011;67472;51.554;7.812;2024-02-14T10:37:53;2.10;;;1.48;;
78197;SDS011;67472;51.554;7.812;2024-02-14T10:40:48;2.35;;;1.45;;
78197;SDS011;67472;51.554;7.812;2024-02-14T10:43:34;2.47;;;1.40;;
78197;SDS011;67472;51.554;7.812;2024-02-14T10:46:23;3.35;;;1.90;;
78197;SDS011;67472;51.554;7.812;2024-02-14T10:49:16;1.60;;;1.50;;
78197;SDS011;67472;51.554;7.812;2024-02-14T10:52:04;1.77;;;1.67;;
78197;SDS011;67472;51.554;7.812;2024-02-14T10:54:52;2.45;;;1.48;;
78197;SDS011;67472;51.554;7.812;2024-02-14T10:57:43;1.60;;;1.50;;
78197;SDS011;67472;51.554;7.812;2024-02-14T11:00:31;2.70;;;1.92;;
78197;SDS011;67472;51.554;7.812;2024-02-14T11:03:19;2.45;;;2.20;;
78197;SDS011;67472;51.554;7.812;2024-02-14T11:06:07;1.88;;;1.77;;
78197;SDS011;67472;51.554;7.812;2024-02-14T11:08:56;3.17;;;1.90;;
78197;SDS011;67472;51.554;7.812;2024-02-14T11:11:48;3.33;;;1.67;;
78197;SDS011;67472;51.554;7.812;2024-02-14T11:14:44;2.80;;;1.70;;
78197;SDS011;67472;51.554;7.812;2024-02-14T11:17:31;2.65;;;1.83;;
78197;SDS011;67472;51.554;7.812;2024-02-14T11:20:19;1.45;;;1.30;;
78197;SDS011;67472;51.554;7.812;2024-02-14T11:23:07;3.20;;;1.40;;
78197;SDS011;67472;51.554;7.812;2024-02-14T11:25:59;3.03;;;1.83;;
78197;SDS011;67472;51.554;7.812;2024-02-14T11:28:46;4.28;;;1.67;;
78197;SDS011;67472;51.554;7.812;2024-02-14T11:31:33;4.00;;;1.90;;
78197;SDS011;67472;51.554;7.812;2024-02-14T11:34:24;3.58;;;2.10;;
78197;SDS011;67472;51.554;7.812;2024-02-14T11:37:11;2.30;;;1.23;;
78197;SDS011;67472;51.554;7.812;2024-02-14T11:40:00;2.33;;;1.40;;
78197;SDS011;67472;51.554;7.812;2024-02-14T11:42:47;4.05;;;2.03;;
78197;SDS011;67472;51.554;7.812;2024-02-14T11:45:33;1.30;;;1.10;;
78197;SDS011;67472;51.554;7.812;2024-02-14T11:48:21;3.03;;;1.33;;
78197;SDS011;67472;51.554;7.812;2024-02-14T11:51:08;1.98;;;1.30;;
78197;SDS011;67472;51.554;7.812;2024-02-14T11:53:57;3.83;;;1.35;;
78197;SDS011;67472;51.554;7.812;2024-02-14T11:56:48;0.95;;;0.90;;
78197;SDS011;67472;51.554;7.812;2024-02-14T11:59:35;2.08;;;0.98;;
78197;SDS011;67472;51.554;7.812;2024-02-14T12:02:21;2.35;;;0.90;;
78197;SDS011;67472;51.554;7.812;2024-02-14T12:05:09;1.40;;;1.30;;
78197;SDS011;67472;51.554;7.812;2024-02-14T12:07:55;2.53;;;1.38;;
78197;SDS011;67472;51.554;7.812;2024-02-14T12:10:43;1.75;;;1.30;;
78197;SDS011;67472;51.554;7.812;2024-02-14T12:13:32;1.95;;;0.93;;
78197;SDS011;67472;51.554;7.812;2024-02-14T12:16:22;1.70;;;1.05;;
78197;SDS011;67472;51.554;7.812;2024-02-14T12:19:14;1.30;;;1.20;;
78197;SDS011;67472;51.554;7.812;2024-02-14T12:22:01;1.23;;;0.95;;
78197;SDS011;67472;51.554;7.812;2024-02-14T12:24:48;1.45;;;1.10;;
78197;SDS011;67472;51.554;7.812;2024-02-14T12:27:39;1.30;;;1.10;;
78197;SDS011;67472;51.554;7.812;2024-02-14T12:30:41;0.88;;;0.88;;
78197;SDS011;67472;51.554;7.812;2024-02-14T12:33:30;2.38;;;0.90;;
78197;SDS011;67472;51.554;7.812;2024-02-14T12:36:19;3.55;;;1.25;;
78197;SDS011;67472;51.554;7.812;2024-02-14T12:39:05;1.45;;;1.10;;
78197;SDS011;67472;51.554;7.812;2024-02-14T12:41:54;3.03;;;1.30;;
78197;SDS011;67472;51.554;7.812;2024-02-14T12:44:42;1.85;;;1.10;;
78197;SDS011;67472;51.554;7.812;2024-02-14T12:47:28;3.30;;;1.50;;
78197;SDS011;67472;51.554;7.812;2024-02-14T12:50:18;1.90;;;1.50;;
78197;SDS011;67472;51.554;7.812;2024-02-14T12:53:06;1.45;;;1.35;;
78197;SDS011;67472;51.554;7.812;2024-02-14T12:55:58;3.55;;;1.60;;
78197;SDS011;67472;51.554;7.812;2024-02-14T12:58:46;3.55;;;1.55;;
78197;SDS011;67472;51.554;7.812;2024-02-14T13:04:36;3.20;;;1.90;;
78197;SDS011;67472;51.554;7.812;2024-02-14T13:07:25;3.58;;;2.03;;
78197;SDS011;67472;51.554;7.812;2024-02-14T13:10:21;3.53;;;2.20;;
78197;SDS011;67472;51.554;7.812;2024-02-14T13:13:11;2.38;;;2.17;;
78197;SDS011;67472;51.554;7.812;2024-02-14T13:16:04;3.72;;;2.60;;
78197;SDS011;67472;51.554;7.812;2024-02-14T13:18:53;2.50;;;2.30;;
78197;SDS011;67472;51.554;7.812;2024-02-14T13:21:40;3.55;;;2.20;;
78197;SDS011;67472;51.554;7.812;2024-02-14T13:24:30;2.95;;;2.10;;
78197;SDS011;67472;51.554;7.812;2024-02-14T13:27:20;5.40;;;2.35;;
78197;SDS011;67472;51.554;7.812;2024-02-14T13:30:08;3.28;;;2.35;;
78197;SDS011;67472;51.554;7.812;2024-02-14T13:32:54;3.20;;;2.78;;
78197;SDS011;67472;51.554;7.812;2024-02-14T13:35:46;4.18;;;2.17;;
78197;SDS011;67472;51.554;7.812;2024-02-14T13:38:32;2.55;;;1.83;;
78197;SDS011;67472;51.554;7.812;2024-02-14T13:41:18;4.13;;;1.83;;
78197;SDS011;67472;51.554;7.812;2024-02-14T13:44:06;3.35;;;1.77;;
78197;SDS011;67472;51.554;7.812;2024-02-14T13:46:52;3.45;;;1.33;;
78197;SDS011;67472;51.554;7.812;2024-02-14T13:49:39;2.55;;;1.25;;
78197;SDS011;67472;51.554;7.812;2024-02-14T13:52:29;4.00;;;1.40;;
78197;SDS011;67472;51.554;7.812;2024-02-14T13:55:16;1.48;;;1.00;;
78197;SDS011;67472;51.554;7.812;2024-02-14T13:58:02;0.98;;;0.93;;
78197;SDS011;67472;51.554;7.812;2024-02-14T14:00:49;4.22;;;1.60;;
78197;SDS011;67472;51.554;7.812;2024-02-14T14:03:37;0.90;;;0.90;;
78197;SDS011;67472;51.554;7.812;2024-02-14T14:06:25;1.75;;;1.05;;
78197;SDS011;67472;51.554;7.812;2024-02-14T14:09:13;2.13;;;1.08;;
78197;SDS011;67472;51.554;7.812;2024-02-14T14:12:00;1.58;;;1.27;;
78197;SDS011;67472;51.554;7.812;2024-02-14T14:14:46;1.38;;;1.00;;
78197;SDS011;67472;51.554;7.812;2024-02-14T14:17:33;0.80;;;0.80;;
78197;SDS011;67472;51.554;7.812;2024-02-14T14:20:20;1.52;;;0.93;;
78197;SDS011;67472;51.554;7.812;2024-02-14T14:23:06;0.90;;;0.90;;
78197;SDS011;67472;51.554;7.812;2024-02-14T14:25:55;1.65;;;0.80;;
78197;SDS011;67472;51.554;7.812;2024-02-14T14:28:41;0.75;;;0.75;;
78197;SDS011;67472;51.554;7.812;2024-02-14T14:31:30;0.90;;;0.90;;
78197;SDS011;67472;51.554;7.812;2024-02-14T14:34:19;0.80;;;0.80;;
78197;SDS011;67472;51.554;7.812;2024-02-14T14:37:06;1.10;;;1.10;;
78197;SDS011;67472;51.554;7.812;2024-02-14T14:39:52;0.90;;;0.90;;
78197;SDS011;67472;51.554;7.812;2024-02-14T14:42:42;1.10;;;1.00;;
78197;SDS011;67472;51.554;7.812;2024-02-14T14:45:29;1.10;;;1.00;;
78197;SDS011;67472;51.554;7.812;2024-02-14T14:48:16;1.98;;;1.40;;
78197;SDS011;67472;51.554;7.812;2024-02-14T14:51:03;1.73;;;1.48;;
78197;SDS011;67472;51.554;7.812;2024-02-14T14:53:49;1.65;;;1.42;;
78197;SDS011;67472;51.554;7.812;2024-02-14T14:56:37;1.45;;;1.35;;
78197;SDS011;67472;51.554;7.812;2024-02-14T14:59:25;1.48;;;1.38;;
78197;SDS011;67472;51.554;7.812;2024-02-14T15:02:11;2.47;;;1.83;;
78197;SDS011;67472;51.554;7.812;2024-02-14T15:04:58;1.75;;;1.38;;
78197;SDS011;67472;51.554;7.812;2024-02-14T15:07:44;3.13;;;1.50;;
78197;SDS011;67472;51.554;7.812;2024-02-14T15:10:31;1.50;;;1.40;;
78197;SDS011;67472;51.554;7.812;2024-02-14T15:13:19;2.00;;;1.80;;
78197;SDS011;67472;51.554;7.812;2024-02-14T15:16:08;2.30;;;1.50;;
78197;SDS011;67472;51.554;7.812;2024-02-14T15:18:54;2.33;;;1.48;;
78197;SDS011;67472;51.554;7.812;2024-02-14T15:21:40;3.88;;;1.60;;
78197;SDS011;67472;51.554;7.812;2024-02-14T15:24:27;1.83;;;1.50;;
78197;SDS011;67472;51.554;7.812;2024-02-14T15:27:16;3.35;;;1.30;;
78197;SDS011;67472;51.554;7.812;2024-02-14T15:30:08;2.65;;;1.50;;
78197;SDS011;67472;51.554;7.812;2024-02-14T15:33:20;3.17;;;1.17;;
78197;SDS011;67472;51.554;7.812;2024-02-14T15:36:09;1.63;;;1.30;;
78197;SDS011;67472;51.554;7.812;2024-02-14T15:39:00;3.60;;;1.58;;
78197;SDS011;67472;51.554;7.812;2024-02-14T15:41:45;1.55;;;1.45;;
78197;SDS011;67472;51.554;7.812;2024-02-14T15:44:32;1.83;;;1.50;;
78197;SDS011;67472;51.554;7.812;2024-02-14T15:47:19;2.85;;;1.70;;
78197;SDS011;67472;51.554;7.812;2024-02-14T15:50:07;1.60;;;1.40;;
78197;SDS011;67472;51.554;7.812;2024-02-14T15:52:55;2.20;;;1.80;;
78197;SDS011;67472;51.554;7.812;2024-02-14T15:55:41;2.22;;;1.80;;
78197;SDS011;67472;51.554;7.812;2024-02-14T15:58:28;1.48;;;1.35;;
78197;SDS011;67472;51.554;7.812;2024-02-14T16:01:15;3.05;;;1.80;;
78197;SDS011;67472;51.554;7.812;2024-02-14T16:04:02;3.85;;;1.48;;
78197;SDS011;67472;51.554;7.812;2024-02-14T16:06:52;2.97;;;1.58;;
78197;SDS011;67472;51.554;7.812;2024-02-14T16:09:38;1.60;;;1.45;;
78197;SDS011;67472;51.554;7.812;2024-02-14T16:12:25;2.83;;;1.65;;
78197;SDS011;67472;51.554;7.812;2024-02-14T16:15:13;1.58;;;1.15;;
78197;SDS011;67472;51.554;7.812;2024-02-14T16:18:02;1.27;;;1.00;;
78197;SDS011;67472;51.554;7.812;2024-02-14T16:20:49;2.28;;;1.30;;
78197;SDS011;67472;51.554;7.812;2024-02-14T16:23:40;2.33;;;1.10;;
78197;SDS011;67472;51.554;7.812;2024-02-14T16:26:27;1.25;;;1.15;;
78197;SDS011;67472;51.554;7.812;2024-02-14T16:29:15;1.60;;;1.00;;
78197;SDS011;67472;51.554;7.812;2024-02-14T16:32:02;1.08;;;0.98;;
78197;SDS011;67472;51.554;7.812;2024-02-14T16:34:48;1.13;;;0.90;;
78197;SDS011;67472;51.554;7.812;2024-02-14T16:37:34;1.00;;;0.88;;
78197;SDS011;67472;51.554;7.812;2024-02-14T16:40:22;1.20;;;1.10;;
78197;SDS011;67472;51.554;7.812;2024-02-14T16:43:09;1.00;;;1.00;;
78197;SDS011;67472;51.554;7.812;2024-02-14T16:45:55;1.98;;;0.80;;
78197;SDS011;67472;51.554;7.812;2024-02-14T16:48:42;1.08;;;1.05;;
78197;SDS011;67472;51.554;7.812;2024-02-14T16:51:28;1.40;;;0.80;;
78197;SDS011;67472;51.554;7.812;2024-02-14T16:54:15;0.70;;;0.70;;
78197;SDS011;67472;51.554;7.812;2024-02-14T16:57:03;0.82;;;0.82;;
78197;SDS011;67472;51.554;7.812;2024-02-14T16:59:55;1.20;;;0.80;;
78197;SDS011;67472;51.554;7.812;2024-02-14T17:02:41;0.82;;;0.70;;